Terminal Aerodrome Forecast
Issued by NWS Corpus Christi, TX

Home | Current Version | Previous Version | Text Only | Print | Product List | Glossary On
Versions: 1 2 3 4 5 6 7 8 9 10 11 12 13
000
FTUS44 KCRP 221100 CCA
TAFVCT
TAF COR
KVCT 221147Z 2212/2312 19003KT P6SM FEW017
      TEMPO 2212/2214 5SM BR BKN014
     FM221500 19008KT P6SM FEW030
     FM221800 16012KT P6SM FEW040
     FM230900 VRB03KT 5SM BR FEW015=

USA.gov is the U.S. government's official web portal to all federal, state and local government web resources and services.